createdAt,value
2018-08-11T00:00:30.275Z,40.85
2018-08-11T00:02:59.355Z,40.56
2018-08-11T00:05:28.402Z,40.74
2018-08-11T00:07:57.587Z,40.65
2018-08-11T00:10:26.660Z,40.52
2018-08-11T00:12:55.699Z,40.59
2018-08-11T00:15:24.770Z,40.80
2018-08-11T00:17:53.779Z,40.58
2018-08-11T00:20:24.421Z,40.60
2018-08-11T00:22:53.694Z,40.81
2018-08-11T00:25:22.883Z,40.80
2018-08-11T00:27:51.995Z,40.66
2018-08-11T00:30:21.564Z,40.71
2018-08-11T00:32:50.902Z,40.92
2018-08-11T00:35:20.416Z,40.93
2018-08-11T00:37:49.468Z,40.65
2018-08-11T00:40:19.601Z,40.47
2018-08-11T00:42:49.705Z,40.98
2018-08-11T00:45:19.346Z,40.65
2018-08-11T00:47:48.435Z,40.73
2018-08-11T00:50:22.011Z,40.93
2018-08-11T00:52:51.148Z,40.81
2018-08-11T00:55:20.243Z,40.73
2018-08-11T00:57:49.348Z,40.75
2018-08-11T01:00:19.522Z,41.05
2018-08-11T01:02:48.686Z,40.76
2018-08-11T01:05:19.140Z,40.78
2018-08-11T01:07:48.884Z,40.71
2018-08-11T01:10:18.147Z,40.66
2018-08-11T01:12:47.963Z,40.86
2018-08-11T01:15:20.083Z,40.89
2018-08-11T01:17:49.942Z,40.92
2018-08-11T01:20:19.247Z,40.69
2018-08-11T01:22:48.947Z,40.85
2018-08-11T01:25:18.007Z,40.73
2018-08-11T01:27:47.080Z,40.82
2018-08-11T01:30:17.979Z,41.11
2018-08-11T01:32:47.047Z,40.91
2018-08-11T01:35:16.156Z,40.87
2018-08-11T01:37:45.797Z,40.97
2018-08-11T01:40:15.907Z,41.21
2018-08-11T01:42:46.155Z,41.20
2018-08-11T01:45:15.830Z,41.18
2018-08-11T01:47:45.146Z,41.22
2018-08-11T01:50:15.368Z,41.01
2018-08-11T01:52:45.585Z,40.63
2018-08-11T01:55:16.011Z,40.53
2018-08-11T01:57:45.305Z,40.69
2018-08-11T02:00:15.664Z,41.06
2018-08-11T02:02:44.736Z,40.82
2018-08-11T02:05:14.036Z,41.09
2018-08-11T02:07:44.034Z,41.14
2018-08-11T02:10:17.547Z,40.80
2018-08-11T02:12:47.051Z,40.82
2018-08-11T02:15:16.467Z,41.10
2018-08-11T02:17:45.579Z,40.75
2018-08-11T02:20:16.079Z,41.13
2018-08-11T02:22:46.274Z,41.01
2018-08-11T02:25:15.329Z,41.14
2018-08-11T02:27:44.430Z,40.73
2018-08-11T02:30:15.170Z,40.82
2018-08-11T02:32:44.360Z,40.91
2018-08-11T02:35:13.937Z,41.02
2018-08-11T02:37:43.334Z,40.69
2018-08-11T02:40:14.779Z,40.90
2018-08-11T02:42:43.858Z,41.10
2018-08-11T02:45:15.040Z,40.68
2018-08-11T02:47:44.379Z,40.81
2018-08-11T02:50:13.725Z,40.82
2018-08-11T02:52:43.455Z,41.03
2018-08-11T02:55:12.607Z,40.74
2018-08-11T02:57:41.668Z,40.59
2018-08-11T03:00:11.742Z,40.86
2018-08-11T03:02:40.858Z,40.98
2018-08-11T03:05:09.977Z,40.69
2018-08-11T03:07:39.075Z,40.93
2018-08-11T03:10:09.316Z,40.53
2018-08-11T03:12:38.867Z,40.75
2018-08-11T03:15:09.616Z,40.49
2018-08-11T03:17:39.075Z,40.78
2018-08-11T03:20:10.851Z,40.78
2018-08-11T03:22:40.044Z,40.32
2018-08-11T03:25:10.387Z,40.32
2018-08-11T03:27:39.727Z,40.37
2018-08-11T03:30:09.053Z,40.37
2018-08-11T03:32:38.121Z,40.13
2018-08-11T03:35:07.223Z,40.26
2018-08-11T03:37:36.319Z,39.79
2018-08-11T03:40:07.339Z,40.28
2018-08-11T03:42:36.462Z,40.24
2018-08-11T03:45:05.772Z,40.15
2018-08-11T03:47:34.865Z,39.99
2018-08-11T03:50:04.472Z,40.41
2018-08-11T03:52:33.623Z,39.77
2018-08-11T03:55:02.850Z,39.89
2018-08-11T03:57:31.964Z,40.10
2018-08-11T04:00:01.031Z,40.08
2018-08-11T04:02:30.102Z,40.14
2018-08-11T04:04:59.235Z,39.99
2018-08-11T04:07:28.335Z,39.89
2018-08-11T04:09:57.436Z,39.62
2018-08-11T04:12:26.564Z,39.91
2018-08-11T04:14:55.549Z,39.83
2018-08-11T04:17:29.860Z,39.66
2018-08-11T04:19:58.967Z,39.77
2018-08-11T04:22:28.135Z,39.85
2018-08-11T04:24:58.366Z,39.59
2018-08-11T04:27:27.470Z,39.77
2018-08-11T04:29:56.549Z,38.43
2018-08-11T04:32:26.036Z,39.13
2018-08-11T04:34:55.424Z,39.33
2018-08-11T04:37:24.503Z,39.49
2018-08-11T04:39:53.568Z,39.13
2018-08-11T04:42:22.651Z,39.09
2018-08-11T04:44:51.907Z,39.15
2018-08-11T04:47:20.981Z,39.34
2018-08-11T04:49:50.154Z,39.39
2018-08-11T04:52:19.398Z,39.30
2018-08-11T04:54:48.720Z,39.13
2018-08-11T04:57:17.783Z,38.95
2018-08-11T04:59:46.919Z,38.94
2018-08-11T05:02:15.999Z,39.14
2018-08-11T05:04:45.111Z,39.21
2018-08-11T05:07:14.196Z,38.96
2018-08-11T05:09:43.287Z,38.85
2018-08-11T05:12:12.451Z,39.10
2018-08-11T05:14:41.545Z,39.15
2018-08-11T05:17:10.778Z,38.94
2018-08-11T05:19:39.923Z,38.88
2018-08-11T05:22:09.117Z,39.24
2018-08-11T05:24:38.287Z,39.11
2018-08-11T05:27:12.831Z,39.08
2018-08-11T05:29:41.946Z,39.14
2018-08-11T05:32:11.144Z,38.86
2018-08-11T05:34:40.338Z,38.96
2018-08-11T05:37:09.502Z,38.80
2018-08-11T05:39:38.719Z,38.89
2018-08-11T05:42:07.801Z,38.90
2018-08-11T05:44:36.901Z,38.86
2018-08-11T05:47:06.213Z,38.77
2018-08-11T05:49:35.334Z,39.00
2018-08-11T05:52:04.553Z,38.71
2018-08-11T05:54:33.676Z,38.87
2018-08-11T05:57:02.765Z,37.78
2018-08-11T05:59:31.816Z,38.72
2018-08-11T06:02:01.004Z,38.57
2018-08-11T06:04:29.999Z,37.57
2018-08-11T06:06:59.070Z,38.43
2018-08-11T06:09:28.184Z,38.04
2018-08-11T06:11:57.378Z,38.54
2018-08-11T06:14:26.459Z,38.43
2018-08-11T06:16:55.516Z,38.20
2018-08-11T06:19:24.677Z,37.73
2018-08-11T06:21:53.780Z,38.06
2018-08-11T06:24:22.830Z,38.22
2018-08-11T06:26:52.004Z,38.22
2018-08-11T06:29:21.128Z,38.15
2018-08-11T06:31:50.220Z,38.25
2018-08-11T06:34:19.562Z,38.48
2018-08-11T06:36:48.736Z,38.58
2018-08-11T06:39:17.816Z,38.44
2018-08-11T06:41:46.894Z,38.68
2018-08-11T06:44:15.968Z,39.19
2018-08-11T06:46:45.198Z,40.25
2018-08-11T06:49:14.419Z,41.25
2018-08-11T06:51:43.497Z,40.45
2018-08-11T06:54:12.563Z,42.13
2018-08-11T06:56:41.692Z,40.91
2018-08-11T06:59:10.788Z,41.86
2018-08-11T07:01:39.894Z,41.65
2018-08-11T07:04:08.961Z,41.87
2018-08-11T07:06:38.207Z,41.45
2018-08-11T07:09:09.587Z,41.56
2018-08-11T07:11:38.992Z,41.00
2018-08-11T07:14:08.141Z,40.88
2018-08-11T07:16:37.234Z,40.93
2018-08-11T07:19:06.496Z,40.96
2018-08-11T07:21:35.545Z,40.85
2018-08-11T07:24:04.742Z,40.20
2018-08-11T07:26:33.819Z,39.89
2018-08-11T07:29:03.135Z,39.72
2018-08-11T07:31:32.210Z,39.41
2018-08-11T07:34:01.483Z,38.89
2018-08-11T07:36:30.702Z,38.69
2018-08-11T07:38:59.942Z,38.83
2018-08-11T07:41:29.214Z,38.13
2018-08-11T07:43:58.298Z,37.90
2018-08-11T07:46:27.419Z,38.15
2018-08-11T07:48:56.517Z,38.06
2018-08-11T07:51:25.589Z,37.58
2018-08-11T07:53:54.857Z,36.97
2018-08-11T07:56:24.095Z,37.05
2018-08-11T07:58:53.187Z,37.19
2018-08-11T08:01:22.281Z,37.45
2018-08-11T08:03:51.533Z,37.81
2018-08-11T08:06:20.605Z,37.81
2018-08-11T08:08:49.697Z,37.93
2018-08-11T08:11:18.780Z,36.60
2018-08-11T08:13:47.916Z,36.79
2018-08-11T08:16:17.166Z,37.04
2018-08-11T08:18:46.289Z,37.23
2018-08-11T08:21:15.359Z,37.67
2018-08-11T08:23:44.472Z,38.17
2018-08-11T08:26:13.761Z,37.94
2018-08-11T08:28:42.962Z,38.01
2018-08-11T08:31:12.172Z,38.44
2018-08-11T08:33:41.287Z,38.04
2018-08-11T08:36:10.539Z,38.10
2018-08-11T08:38:39.623Z,38.10
2018-08-11T08:41:08.743Z,38.37
2018-08-11T08:43:37.819Z,37.81
2018-08-11T08:46:06.999Z,37.95
2018-08-11T08:48:36.142Z,38.09
2018-08-11T08:51:05.220Z,37.99
2018-08-11T08:53:34.311Z,38.25
2018-08-11T08:56:03.735Z,38.40
2018-08-11T08:58:32.811Z,38.30
2018-08-11T09:01:01.924Z,38.55
2018-08-11T09:03:31.013Z,38.19
2018-08-11T09:06:00.113Z,38.58
2018-08-11T09:08:29.201Z,38.10
2018-08-11T09:10:58.325Z,38.06
2018-08-11T09:13:27.363Z,38.05
2018-08-11T09:15:56.516Z,38.50
2018-08-11T09:18:25.579Z,38.42
2018-08-11T09:20:54.656Z,38.25
2018-08-11T09:23:23.791Z,38.40
2018-08-11T09:25:52.875Z,38.44
2018-08-11T09:28:22.003Z,38.36
2018-08-11T09:30:51.067Z,36.65
2018-08-11T09:33:20.171Z,37.51
2018-08-11T09:35:49.242Z,36.26
2018-08-11T09:38:18.363Z,37.38
2018-08-11T09:40:47.635Z,37.45
2018-08-11T09:43:16.772Z,37.12
2018-08-11T09:45:45.861Z,37.37
2018-08-11T09:48:15.136Z,35.15
2018-08-11T09:50:44.411Z,34.60
2018-08-11T09:53:13.570Z,35.69
2018-08-11T09:55:42.647Z,36.47
2018-08-11T09:58:11.698Z,35.66
2018-08-11T10:00:46.078Z,36.36
2018-08-11T10:03:15.160Z,36.79
2018-08-11T10:05:44.238Z,34.93
2018-08-11T10:08:13.344Z,35.15
2018-08-11T10:10:42.462Z,35.11
2018-08-11T10:13:11.542Z,36.30
2018-08-11T10:15:40.644Z,36.00
2018-08-11T10:18:09.880Z,34.92
2018-08-11T10:20:39.014Z,35.30
2018-08-11T10:23:08.150Z,35.88
2018-08-11T10:25:38.758Z,36.18
2018-08-11T10:28:13.520Z,35.50
2018-08-11T10:30:42.687Z,34.83
2018-08-11T10:33:11.799Z,36.19
2018-08-11T10:35:40.896Z,35.19
2018-08-11T10:38:10.609Z,35.73
2018-08-11T10:40:39.703Z,34.39
2018-08-11T10:43:08.896Z,34.93
2018-08-11T10:45:37.976Z,35.16
2018-08-11T10:48:07.066Z,35.21
2018-08-11T10:50:36.197Z,35.42
2018-08-11T10:53:05.291Z,35.16
2018-08-11T10:55:34.351Z,35.29
2018-08-11T10:58:03.472Z,35.46
2018-08-11T11:00:32.547Z,35.65
2018-08-11T11:03:01.617Z,35.26
2018-08-11T11:05:30.704Z,35.83
2018-08-11T11:07:59.779Z,35.41
2018-08-11T11:10:29.084Z,35.30
2018-08-11T11:12:58.232Z,36.04
2018-08-11T11:15:27.311Z,35.27
2018-08-11T11:17:56.429Z,36.32
2018-08-11T11:20:25.521Z,36.13
2018-08-11T11:22:54.600Z,35.62
2018-08-11T11:25:23.898Z,36.10
2018-08-11T11:27:53.018Z,36.37
2018-08-11T11:30:22.071Z,36.45
2018-08-11T11:32:51.207Z,36.13
2018-08-11T11:35:20.307Z,36.08
2018-08-11T11:37:49.444Z,35.48
2018-08-11T11:40:18.516Z,35.57
2018-08-11T11:42:47.604Z,36.36
2018-08-11T11:45:16.692Z,36.35
2018-08-11T11:47:45.795Z,36.19
2018-08-11T11:50:15.013Z,35.48
2018-08-11T11:52:44.077Z,35.95
2018-08-11T11:55:13.264Z,35.25
2018-08-11T11:57:42.385Z,36.39
2018-08-11T12:00:11.780Z,35.48
2018-08-11T12:02:40.868Z,35.36
2018-08-11T12:05:09.976Z,35.52
2018-08-11T12:07:39.047Z,35.44
2018-08-11T12:10:08.160Z,35.87
2018-08-11T12:12:37.377Z,36.11
2018-08-11T12:15:06.659Z,36.04
2018-08-11T12:17:35.804Z,34.85
2018-08-11T12:20:05.265Z,35.41
2018-08-11T12:22:34.395Z,36.15
2018-08-11T12:25:03.558Z,35.62
2018-08-11T12:27:32.658Z,35.57
2018-08-11T12:30:01.727Z,36.04
2018-08-11T12:32:30.916Z,36.10
2018-08-11T12:35:00.039Z,36.04
2018-08-11T12:37:29.102Z,35.21
2018-08-11T12:39:58.172Z,36.11
2018-08-11T12:42:27.314Z,35.89
2018-08-11T12:44:56.374Z,36.39
2018-08-11T12:47:25.507Z,36.34
2018-08-11T12:49:54.575Z,35.57
2018-08-11T12:52:23.655Z,36.47
2018-08-11T12:54:52.722Z,36.33
2018-08-11T12:57:21.836Z,36.45
2018-08-11T12:59:50.907Z,35.93
2018-08-11T13:02:19.983Z,36.07
2018-08-11T13:04:55.468Z,36.45
2018-08-11T13:07:24.636Z,36.28
2018-08-11T13:09:53.698Z,36.19
2018-08-11T13:12:22.809Z,36.63
2018-08-11T13:14:51.870Z,35.97
2018-08-11T13:17:21.033Z,36.15
2018-08-11T13:19:50.104Z,36.40
2018-08-11T13:22:19.189Z,36.67
2018-08-11T13:24:48.300Z,35.80
2018-08-11T13:27:17.387Z,35.95
2018-08-11T13:29:46.454Z,36.07
2018-08-11T13:32:15.505Z,36.42
2018-08-11T13:34:44.817Z,36.48
2018-08-11T13:37:13.973Z,36.67
2018-08-11T13:39:51.309Z,35.84
2018-08-11T13:42:21.160Z,35.96
2018-08-11T13:44:50.276Z,36.14
2018-08-11T13:47:19.403Z,36.16
2018-08-11T13:49:48.688Z,35.93
2018-08-11T13:52:18.068Z,36.71
2018-08-11T13:54:47.219Z,36.37
2018-08-11T13:57:16.291Z,35.90
2018-08-11T13:59:45.511Z,36.13
2018-08-11T14:02:14.679Z,35.28
2018-08-11T14:04:43.948Z,36.18
2018-08-11T14:07:13.401Z,36.09
2018-08-11T14:09:42.461Z,36.05
2018-08-11T14:12:11.567Z,36.09
2018-08-11T14:14:40.659Z,35.72
2018-08-11T14:17:09.859Z,36.39
2018-08-11T14:19:38.993Z,36.32
2018-08-11T14:22:08.237Z,36.28
2018-08-11T14:24:37.623Z,36.05
2018-08-11T14:27:07.001Z,35.98
2018-08-11T14:29:36.072Z,35.39
2018-08-11T14:32:05.960Z,35.65
2018-08-11T14:34:35.119Z,35.42
2018-08-11T14:37:05.016Z,35.85
2018-08-11T14:39:34.194Z,35.39
2018-08-11T14:42:03.281Z,35.87
2018-08-11T14:44:32.414Z,35.63
2018-08-11T14:47:01.849Z,35.68
2018-08-11T14:49:31.942Z,36.00
2018-08-11T14:52:01.097Z,35.43
2018-08-11T14:54:30.147Z,36.02
2018-08-11T14:56:59.309Z,36.19
2018-08-11T14:59:28.509Z,36.12
2018-08-11T15:01:58.624Z,35.91
2018-08-11T15:04:28.011Z,35.39
2018-08-11T15:06:57.553Z,35.61
2018-08-11T15:09:26.897Z,35.83
2018-08-11T15:11:55.968Z,35.70
2018-08-11T15:14:25.358Z,35.90
2018-08-11T15:16:54.678Z,35.34
2018-08-11T15:19:23.866Z,35.22
2018-08-11T15:21:52.946Z,35.53
2018-08-11T15:24:22.123Z,35.36
2018-08-11T15:26:51.197Z,35.78
2018-08-11T15:29:20.436Z,35.58
2018-08-11T15:31:49.803Z,34.88
2018-08-11T15:34:19.124Z,34.66
2018-08-11T15:36:48.526Z,35.46
2018-08-11T15:39:17.818Z,35.36
2018-08-11T15:41:46.891Z,35.47
2018-08-11T15:44:17.304Z,35.61
2018-08-11T15:46:46.577Z,35.68
2018-08-11T15:49:15.742Z,35.79
2018-08-11T15:51:44.888Z,35.47
2018-08-11T15:54:14.143Z,35.75
2018-08-11T15:56:43.587Z,36.30
2018-08-11T15:59:12.662Z,35.34
2018-08-11T16:01:41.900Z,35.74
2018-08-11T16:04:11.643Z,35.20
2018-08-11T16:06:40.942Z,35.99
2018-08-11T16:09:10.590Z,35.41
2018-08-11T16:11:39.882Z,36.16
2018-08-11T16:14:09.570Z,35.57
2018-08-11T16:16:38.876Z,34.83
2018-08-11T16:19:07.971Z,36.21
2018-08-11T16:21:37.158Z,36.13
2018-08-11T16:24:06.324Z,36.39
2018-08-11T16:26:35.434Z,35.36
2018-08-11T16:29:05.418Z,36.24
2018-08-11T16:31:34.463Z,36.06
2018-08-11T16:34:04.030Z,35.78
2018-08-11T16:36:33.331Z,35.86
2018-08-11T16:39:02.795Z,36.28
2018-08-11T16:41:31.856Z,36.15
2018-08-11T16:44:01.362Z,36.14
2018-08-11T16:46:30.463Z,35.74
2018-08-11T16:48:59.843Z,36.57
2018-08-11T16:51:28.938Z,36.13
2018-08-11T16:53:59.661Z,36.28
2018-08-11T16:56:29.240Z,36.04
2018-08-11T16:58:58.634Z,36.17
2018-08-11T17:01:28.143Z,36.49
2018-08-11T17:03:57.288Z,36.03
2018-08-11T17:06:26.717Z,36.55
2018-08-11T17:08:57.087Z,36.18
2018-08-11T17:11:26.167Z,36.05
2018-08-11T17:13:55.425Z,36.64
2018-08-11T17:16:25.158Z,36.17
2018-08-11T17:18:54.570Z,36.25
2018-08-11T17:21:24.478Z,35.92
2018-08-11T17:23:54.077Z,35.81
2018-08-11T17:26:23.790Z,35.69
2018-08-11T17:28:53.142Z,36.05
2018-08-11T17:31:22.328Z,36.45
2018-08-11T17:33:51.468Z,35.53
2018-08-11T17:36:20.792Z,36.51
2018-08-11T17:38:50.041Z,36.26
2018-08-11T17:41:19.974Z,36.47
2018-08-11T17:43:49.033Z,36.24
2018-08-11T17:46:18.504Z,35.98
2018-08-11T17:48:47.967Z,35.31
2018-08-11T17:51:17.074Z,36.56
2018-08-11T17:53:46.954Z,36.42
2018-08-11T17:56:16.031Z,35.94
2018-08-11T17:58:45.551Z,36.52
2018-08-11T18:01:15.091Z,35.82
2018-08-11T18:03:44.508Z,35.40
2018-08-11T18:06:13.564Z,35.88
2018-08-11T18:08:43.477Z,35.31
2018-08-11T18:11:12.604Z,35.56
2018-08-11T18:13:41.707Z,35.86
2018-08-11T18:16:11.207Z,34.84
2018-08-11T18:18:40.304Z,35.60
2018-08-11T18:21:10.055Z,35.10
2018-08-11T18:23:39.887Z,35.73
2018-08-11T18:26:08.948Z,35.22
2018-08-11T18:28:38.426Z,34.87
2018-08-11T18:31:07.820Z,35.35
2018-08-11T18:33:37.405Z,36.29
2018-08-11T18:36:06.745Z,36.07
2018-08-11T18:38:35.862Z,35.78
2018-08-11T18:41:04.952Z,36.07
2018-08-11T18:43:34.283Z,35.88
2018-08-11T18:46:04.059Z,35.59
2018-08-11T18:48:33.722Z,35.73
2018-08-11T18:51:02.844Z,35.61
2018-08-11T18:53:31.953Z,36.17
2018-08-11T18:56:01.544Z,35.68
2018-08-11T18:58:30.638Z,35.46
2018-08-11T19:01:00.196Z,36.40
2018-08-11T19:03:30.571Z,35.98
2018-08-11T19:06:00.112Z,36.46
2018-08-11T19:08:29.687Z,36.57
2018-08-11T19:10:58.811Z,36.20
2018-08-11T19:13:28.240Z,36.27
2018-08-11T19:15:58.074Z,36.41
2018-08-11T19:18:27.444Z,36.40
2018-08-11T19:20:56.506Z,36.40
2018-08-11T19:23:29.438Z,35.92
2018-08-11T19:25:59.882Z,36.54
2018-08-11T19:28:29.674Z,36.76
2018-08-11T19:30:58.770Z,36.53
2018-08-11T19:33:27.847Z,36.64
2018-08-11T19:35:56.931Z,36.66
2018-08-11T19:38:29.080Z,36.85
2018-08-11T19:40:58.544Z,36.78
2018-08-11T19:43:27.786Z,36.76
2018-08-11T19:45:56.901Z,36.75
2018-08-11T19:48:26.363Z,36.24
2018-08-11T19:50:56.684Z,36.88
2018-08-11T19:53:25.828Z,36.60
2018-08-11T19:55:55.963Z,36.89
2018-08-11T19:58:25.624Z,36.72
2018-08-11T20:00:54.761Z,37.11
2018-08-11T20:03:25.724Z,36.74
2018-08-11T20:05:55.853Z,37.10
2018-08-11T20:08:25.648Z,37.02
2018-08-11T20:10:55.451Z,36.86
2018-08-11T20:13:24.892Z,36.99
2018-08-11T20:15:53.964Z,37.08
2018-08-11T20:18:23.053Z,37.04
2018-08-11T20:20:52.470Z,36.63
2018-08-11T20:23:21.626Z,36.71
2018-08-11T20:25:50.816Z,36.61
2018-08-11T20:28:21.018Z,37.13
2018-08-11T20:30:50.355Z,37.17
2018-08-11T20:33:19.438Z,36.93
2018-08-11T20:35:48.776Z,36.90
2018-08-11T20:38:18.235Z,36.79
2018-08-11T20:40:47.420Z,37.00
2018-08-11T20:43:17.682Z,36.68
2018-08-11T20:45:46.963Z,36.56
2018-08-11T20:48:16.068Z,36.47
2018-08-11T20:50:50.590Z,35.85
2018-08-11T20:53:19.668Z,36.55
2018-08-11T20:55:48.779Z,36.57
2018-08-11T20:58:17.859Z,36.15
2018-08-11T21:00:46.958Z,36.31
2018-08-11T21:03:16.076Z,36.48
2018-08-11T21:05:45.176Z,35.79
2018-08-11T21:08:14.267Z,36.49
2018-08-11T21:10:43.464Z,36.31
2018-08-11T21:13:12.532Z,36.30
2018-08-11T21:15:41.635Z,36.39
2018-08-11T21:18:10.739Z,36.87
2018-08-11T21:20:39.806Z,36.19
2018-08-11T21:23:09.260Z,36.38
2018-08-11T21:25:38.323Z,36.71
2018-08-11T21:28:07.412Z,36.76
2018-08-11T21:30:36.521Z,36.57
2018-08-11T21:33:05.879Z,36.27
2018-08-11T21:35:35.015Z,36.45
2018-08-11T21:38:04.124Z,36.28
2018-08-11T21:40:33.214Z,36.34
2018-08-11T21:43:02.298Z,36.45
2018-08-11T21:45:33.164Z,36.81
2018-08-11T21:48:02.228Z,36.32
2018-08-11T21:50:31.296Z,36.62
2018-08-11T21:53:00.343Z,36.42
2018-08-11T21:55:29.450Z,36.94
2018-08-11T21:57:58.861Z,36.48
2018-08-11T22:00:38.240Z,36.71
2018-08-11T22:03:08.391Z,36.37
2018-08-11T22:05:37.502Z,36.53
2018-08-11T22:08:06.574Z,36.70
2018-08-11T22:10:35.666Z,36.70
2018-08-11T22:13:04.790Z,36.72
2018-08-11T22:15:33.983Z,36.68
2018-08-11T22:18:03.065Z,36.53
2018-08-11T22:20:32.121Z,36.86
2018-08-11T22:23:01.387Z,36.33
2018-08-11T22:25:30.588Z,36.64
2018-08-11T22:27:59.903Z,36.61
2018-08-11T22:30:28.967Z,36.56
2018-08-11T22:32:58.025Z,36.50
2018-08-11T22:35:27.258Z,37.33
2018-08-11T22:37:56.477Z,37.06
2018-08-11T22:40:25.498Z,37.40
2018-08-11T22:42:54.604Z,37.63
2018-08-11T22:45:23.707Z,37.40
2018-08-11T22:47:52.874Z,37.41
2018-08-11T22:50:22.763Z,37.45
2018-08-11T22:52:51.925Z,37.20
2018-08-11T22:55:21.140Z,36.36
2018-08-11T22:57:50.203Z,36.31
2018-08-11T23:00:21.152Z,35.40
2018-08-11T23:02:50.280Z,35.20
2018-08-11T23:05:20.409Z,34.83
2018-08-11T23:07:49.463Z,35.02
2018-08-11T23:10:18.865Z,35.19
2018-08-11T23:12:48.329Z,34.87
2018-08-11T23:15:18.515Z,34.44
2018-08-11T23:17:49.716Z,34.29
2018-08-11T23:20:18.871Z,34.51
2018-08-11T23:22:47.960Z,34.07
2018-08-11T23:25:17.203Z,33.79
2018-08-11T23:27:46.278Z,34.61
2018-08-11T23:30:16.531Z,34.21
2018-08-11T23:32:45.831Z,34.21
2018-08-11T23:35:15.013Z,34.01
2018-08-11T23:37:44.048Z,33.77
2018-08-11T23:40:13.393Z,33.38
2018-08-11T23:42:42.455Z,33.63
2018-08-11T23:45:14.231Z,32.88
2018-08-11T23:47:43.458Z,33.72
2018-08-11T23:50:13.399Z,33.44
2018-08-11T23:52:43.612Z,33.41
2018-08-11T23:55:13.607Z,33.82
2018-08-11T23:57:42.831Z,33.99
